カンゲルルススアーク の空港の天気 - METARとTAF

カンゲルルススアーク空港 ( BGSF / SFJ ) - グリーンランド カンゲルルススアーク
飛行場実況気象(Metar)
観測時間09/24 23:50 WGST (09/25 01:50 UTC)
風向・風速東 3m/s
視程-
天気現象弱いしゅう雨
全天の8割程度の雲 雲底高度 610m
全天を覆う雲 雲底高度 730m
気温3℃
湿度70%
気圧1002hPa
METARBGSF 250150Z AUTO 09006KT 9999NDV -SHRA BKN020/// OVC024/// 03/M02 Q1002
過去の天気等 Google飛行場航空写真 Wunderground天気予報

過去48時間のMETAR

飛行場予報(TAF)
発表時間: 9/24 20:52 WGST (9/24 22:52 UTC)
予報対象時間: 24日22時 WGST ~ 25日22時 WGST
風向・風速西 3m/s
視程10km以上
全天の8割程度の雲 雲底高度 2130m
24日22時 WGST ~ 24日24時 WGST に徐々に
視程6000m
天気現象弱い雪雨
全天の8割程度の雲 雲底高度 910m
25日0時 WGST ~ 25日14時 WGST に一時的に
視程2500m
天気現象
全天を覆う雲 鉛直視程 240m
25日14時 WGST ~ 25日16時 WGST に徐々に
視程10km以上
天気現象運行に影響にある天気現象が終了
全天の8割程度の雲 雲底高度 1520m
25日16時 WGST ~ 25日22時 WGST に一時的に
全天の4割程度の雲 雲底高度 1520m
TAF BGSF 242252Z 2500/2524 26006KT 9999 BKN070
BECMG 2500/2502 6000 -SNRA BKN030
TEMPO 2502/2516 2500 SN VV008
BECMG 2516/2518 9999 NSW BKN050
TEMPO 2518/2524 SCT050